VIAR/ATQ METAR and TAF weather

Enter ICAO airport designator
Station Type Date Time Source
VIAR METAR 2021/10/20 06:30 UTC NOAA

VIAR 200630Z 28005KT 3000 HZ NSC 30/17 Q1012 NOSIG


Station Type Date Time Source
VIAR Decoded METAR 2021/10/20 06:30 UTC NOAA

Amritsar, India (VIAR) 31-38N 074-52E 234M
Oct 20, 2021 - 02:30 AM EDT / 2021.10.20 0630 UTC
Wind: from the W (280 degrees) at 6 MPH (5 KT):0
Visibility: 1 mile(s):0
Weather: haze
Temperature: 86 F (30 C)
Dew Point: 62 F (17 C)
Relative Humidity: 45%
Pressure (altimeter): 29.88 in. Hg (1012 hPa)
ob: VIAR 200630Z 28005KT 3000 HZ NSC 30/17 Q1012 NOSIG
cycle: 6

Station Type Date Time Source
VIAR TAF 2021/10/20 06:18 UTC NOAA

TAF TAF VIAR 200500Z 2006/2112 30008KT 4000 HZ NSC
BECMG 2013/2015 VRB02KT 2500 BR
BECMG 2100/2102 00000KT 1200 BR FU
BECMG 2103/2105 VRB02KT 3000 HZ
BECMG 2107/2109 29006KT 4000 HZ

Example: see airport list